sensor_id;sensor_type;location;lat;lon;timestamp;pressure;altitude;pressure_sealevel;temperature;humidity
42111;BME280;27766;52.174;5.456;2023-03-25T00:00:13;99989.19;;;9.78;100.00
42111;BME280;27766;52.174;5.456;2023-03-25T00:02:44;99984.00;;;9.75;100.00
42111;BME280;27766;52.174;5.456;2023-03-25T00:05:12;99971.09;;;9.78;100.00
42111;BME280;27766;52.174;5.456;2023-03-25T00:07:44;99981.38;;;9.74;100.00
42111;BME280;27766;52.174;5.456;2023-03-25T00:10:12;99976.16;;;9.64;100.00
42111;BME280;27766;52.174;5.456;2023-03-25T00:12:40;99986.50;;;9.64;100.00
42111;BME280;27766;52.174;5.456;2023-03-25T00:15:10;99981.34;;;9.66;100.00
42111;BME280;27766;52.174;5.456;2023-03-25T00:17:37;99985.66;;;9.67;100.00
42111;BME280;27766;52.174;5.456;2023-03-25T00:20:06;99975.28;;;9.62;100.00
42111;BME280;27766;52.174;5.456;2023-03-25T00:22:38;99979.66;;;9.71;100.00
42111;BME280;27766;52.174;5.456;2023-03-25T00:25:13;99990.84;;;9.70;100.00
42111;BME280;27766;52.174;5.456;2023-03-25T00:27:47;99980.47;;;9.64;100.00
42111;BME280;27766;52.174;5.456;2023-03-25T00:30:15;99950.13;;;9.38;100.00
42111;BME280;27766;52.174;5.456;2023-03-25T00:32:43;99975.28;;;9.62;100.00
42111;BME280;27766;52.174;5.456;2023-03-25T00:35:20;99982.16;;;9.59;100.00
42111;BME280;27766;52.174;5.456;2023-03-25T00:37:50;99978.72;;;9.63;100.00
42111;BME280;27766;52.174;5.456;2023-03-25T00:40:30;99987.41;;;9.68;100.00
42111;BME280;27766;52.174;5.456;2023-03-25T00:43:03;99983.03;;;9.61;100.00
42111;BME280;27766;52.174;5.456;2023-03-25T00:45:32;99968.25;;;9.47;100.00
42111;BME280;27766;52.174;5.456;2023-03-25T00:47:59;99986.34;;;9.47;100.00
42111;BME280;27766;52.174;5.456;2023-03-25T00:50:27;99980.38;;;9.52;100.00
42111;BME280;27766;52.174;5.456;2023-03-25T00:52:55;99977.69;;;9.42;100.00
42111;BME280;27766;52.174;5.456;2023-03-25T00:55:22;99984.72;;;9.57;100.00
42111;BME280;27766;52.174;5.456;2023-03-25T00:57:49;99988.91;;;9.44;100.00
42111;BME280;27766;52.174;5.456;2023-03-25T01:00:17;99992.44;;;9.56;100.00
42111;BME280;27766;52.174;5.456;2023-03-25T01:02:44;99975.16;;;9.48;100.00
42111;BME280;27766;52.174;5.456;2023-03-25T01:05:12;99976.94;;;9.53;100.00
42111;BME280;27766;52.174;5.456;2023-03-25T01:07:39;99984.69;;;9.53;100.00
42111;BME280;27766;52.174;5.456;2023-03-25T01:10:08;99976.94;;;9.53;100.00
42111;BME280;27766;52.174;5.456;2023-03-25T01:12:35;99967.41;;;9.45;100.00
42111;BME280;27766;52.174;5.456;2023-03-25T01:15:03;99973.44;;;9.47;100.00
42111;BME280;27766;52.174;5.456;2023-03-25T01:17:30;99975.16;;;9.45;100.00
42111;BME280;27766;52.174;5.456;2023-03-25T01:19:58;99964.88;;;9.52;100.00
42111;BME280;27766;52.174;5.456;2023-03-25T01:22:25;99981.22;;;9.50;100.00
42111;BME280;27766;52.174;5.456;2023-03-25T01:24:52;99960.59;;;9.57;100.00
42111;BME280;27766;52.174;5.456;2023-03-25T01:27:19;99961.44;;;9.53;100.00
42111;BME280;27766;52.174;5.456;2023-03-25T01:29:46;99972.63;;;9.52;100.00
42111;BME280;27766;52.174;5.456;2023-03-25T01:32:13;99970.13;;;9.61;100.00
42111;BME280;27766;52.174;5.456;2023-03-25T01:34:40;99971.81;;;9.59;100.00
42111;BME280;27766;52.174;5.456;2023-03-25T01:37:08;99976.94;;;9.56;100.00
42111;BME280;27766;52.174;5.456;2023-03-25T01:39:36;99965.69;;;9.47;100.00
42111;BME280;27766;52.174;5.456;2023-03-25T01:42:03;99964.88;;;9.52;100.00
42111;BME280;27766;52.174;5.456;2023-03-25T01:47:05;99963.03;;;9.41;100.00
42111;BME280;27766;52.174;5.456;2023-03-25T01:49:38;99960.28;;;9.21;100.00
42111;BME280;27766;52.174;5.456;2023-03-25T01:52:11;99953.22;;;9.00;100.00
42111;BME280;27766;52.174;5.456;2023-03-25T01:54:41;99956.47;;;8.83;100.00
42111;BME280;27766;52.174;5.456;2023-03-25T01:57:11;99954.72;;;8.82;100.00
42111;BME280;27766;52.174;5.456;2023-03-25T01:59:40;99952.03;;;8.73;100.00
42111;BME280;27766;52.174;5.456;2023-03-25T02:02:08;99949.38;;;8.65;100.00
42111;BME280;27766;52.174;5.456;2023-03-25T02:04:58;99949.41;;;8.68;100.00
42111;BME280;27766;52.174;5.456;2023-03-25T02:07:27;99958.88;;;8.69;100.00
42111;BME280;27766;52.174;5.456;2023-03-25T02:09:59;99949.47;;;8.73;100.00
42111;BME280;27766;52.174;5.456;2023-03-25T02:12:31;99954.63;;;8.71;100.00
42111;BME280;27766;52.174;5.456;2023-03-25T02:15:02;99959.72;;;8.68;100.00
42111;BME280;27766;52.174;5.456;2023-03-25T02:28:53;99950.38;;;8.78;100.00
42111;BME280;27766;52.174;5.456;2023-03-25T02:39:45;99931.44;;;8.76;100.00
42111;BME280;27766;52.174;5.456;2023-03-25T02:45:23;99933.97;;;8.73;100.00
42111;BME280;27766;52.174;5.456;2023-03-25T02:47:56;99938.19;;;8.65;100.00
42111;BME280;27766;52.174;5.456;2023-03-25T02:50:37;99932.06;;;8.57;100.00
42111;BME280;27766;52.174;5.456;2023-03-25T02:53:10;99934.69;;;8.60;100.00
42111;BME280;27766;52.174;5.456;2023-03-25T02:55:41;99929.53;;;8.60;100.00
42111;BME280;27766;52.174;5.456;2023-03-25T02:58:12;99931.19;;;8.54;100.00
42111;BME280;27766;52.174;5.456;2023-03-25T03:00:42;99933.75;;;8.53;100.00
42111;BME280;27766;52.174;5.456;2023-03-25T03:03:10;99929.59;;;8.64;100.00
42111;BME280;27766;52.174;5.456;2023-03-25T03:05:41;99917.53;;;8.62;100.00
42111;BME280;27766;52.174;5.456;2023-03-25T03:24:32;99919.06;;;8.47;100.00
42111;BME280;27766;52.174;5.456;2023-03-25T03:27:16;99913.94;;;8.49;100.00
42111;BME280;27766;52.174;5.456;2023-03-25T03:29:56;99913.84;;;8.43;100.00
42111;BME280;27766;52.174;5.456;2023-03-25T03:35:19;99922.38;;;8.37;100.00
42111;BME280;27766;52.174;5.456;2023-03-25T03:37:52;99905.91;;;8.27;100.00
42111;BME280;27766;52.174;5.456;2023-03-25T03:40:24;99894.72;;;8.23;100.00
42111;BME280;27766;52.174;5.456;2023-03-25T03:43:02;99906.72;;;8.23;100.00
42111;BME280;27766;52.174;5.456;2023-03-25T03:45:43;99898.97;;;8.21;100.00
42111;BME280;27766;52.174;5.456;2023-03-25T03:48:31;99909.34;;;8.28;100.00
42111;BME280;27766;52.174;5.456;2023-03-25T03:51:05;99899.00;;;8.24;100.00
42111;BME280;27766;52.174;5.456;2023-03-25T03:53:51;99911.09;;;8.29;100.00
42111;BME280;27766;52.174;5.456;2023-03-25T03:56:54;99906.84;;;8.32;100.00
42111;BME280;27766;52.174;5.456;2023-03-25T03:59:38;99901.75;;;8.37;100.00
42111;BME280;27766;52.174;5.456;2023-03-25T04:02:37;99900.06;;;8.40;100.00
42111;BME280;27766;52.174;5.456;2023-03-25T04:05:06;99908.63;;;8.38;100.00
42111;BME280;27766;52.174;5.456;2023-03-25T04:07:46;99906.06;;;8.41;100.00
42111;BME280;27766;52.174;5.456;2023-03-25T04:13:03;99900.75;;;8.27;100.00
42111;BME280;27766;52.174;5.456;2023-03-25T04:15:31;99899.09;;;8.31;100.00
42111;BME280;27766;52.174;5.456;2023-03-25T04:17:59;99889.56;;;8.25;100.00
42111;BME280;27766;52.174;5.456;2023-03-25T04:20:31;99890.44;;;8.27;100.00
42111;BME280;27766;52.174;5.456;2023-03-25T04:23:02;99891.19;;;8.20;100.00
42111;BME280;27766;52.174;5.456;2023-03-25T04:25:31;99876.59;;;8.19;100.00
42111;BME280;27766;52.174;5.456;2023-03-25T04:27:58;99880.88;;;8.18;100.00
42111;BME280;27766;52.174;5.456;2023-03-25T04:30:27;99899.00;;;8.24;100.00
42111;BME280;27766;52.174;5.456;2023-03-25T04:32:54;99891.09;;;8.12;100.00
42111;BME280;27766;52.174;5.456;2023-03-25T04:35:23;99885.97;;;8.12;100.00
42111;BME280;27766;52.174;5.456;2023-03-25T04:37:51;99889.31;;;8.06;100.00
42111;BME280;27766;52.174;5.456;2023-03-25T04:40:24;99890.19;;;8.07;100.00
42111;BME280;27766;52.174;5.456;2023-03-25T04:42:54;99891.81;;;7.99;100.00
42111;BME280;27766;52.174;5.456;2023-03-25T04:45:22;99890.00;;;7.95;100.00
42111;BME280;27766;52.174;5.456;2023-03-25T04:47:52;99917.44;;;7.89;100.00
42111;BME280;27766;52.174;5.456;2023-03-25T04:50:25;99893.94;;;7.66;100.00
42111;BME280;27766;52.174;5.456;2023-03-25T04:52:54;99898.72;;;7.44;100.00
42111;BME280;27766;52.174;5.456;2023-03-25T04:55:23;99912.34;;;7.36;100.00
42111;BME280;27766;52.174;5.456;2023-03-25T04:57:52;99908.88;;;7.34;100.00
42111;BME280;27766;52.174;5.456;2023-03-25T05:00:22;99918.59;;;7.52;100.00
42111;BME280;27766;52.174;5.456;2023-03-25T05:02:54;99909.31;;;7.62;100.00
42111;BME280;27766;52.174;5.456;2023-03-25T05:05:23;99911.22;;;7.75;100.00
42111;BME280;27766;52.174;5.456;2023-03-25T05:07:54;99905.31;;;7.84;100.00
42111;BME280;27766;52.174;5.456;2023-03-25T05:10:25;99910.63;;;7.95;100.00
42111;BME280;27766;52.174;5.456;2023-03-25T05:12:59;99902.94;;;7.98;100.00
42111;BME280;27766;52.174;5.456;2023-03-25T05:15:29;99906.44;;;8.00;100.00
42111;BME280;27766;52.174;5.456;2023-03-25T05:17:58;99904.69;;;7.99;100.00
42111;BME280;27766;52.174;5.456;2023-03-25T05:20:25;99901.28;;;8.03;100.00
42111;BME280;27766;52.174;5.456;2023-03-25T05:22:52;99894.47;;;8.05;100.00
42111;BME280;27766;52.174;5.456;2023-03-25T05:25:23;99895.16;;;7.95;100.00
42111;BME280;27766;52.174;5.456;2023-03-25T05:27:50;99904.63;;;7.94;100.00
42111;BME280;27766;52.174;5.456;2023-03-25T05:30:17;99899.53;;;7.99;100.00
42111;BME280;27766;52.174;5.456;2023-03-25T05:32:45;99903.91;;;8.04;100.00
42111;BME280;27766;52.174;5.456;2023-03-25T05:35:22;99909.88;;;8.02;100.00
42111;BME280;27766;52.174;5.456;2023-03-25T05:37:49;99901.09;;;7.87;100.00
42111;BME280;27766;52.174;5.456;2023-03-25T05:40:17;99900.38;;;7.96;100.00
42111;BME280;27766;52.174;5.456;2023-03-25T05:42:44;99905.47;;;7.93;100.00
42111;BME280;27766;52.174;5.456;2023-03-25T05:45:15;99921.75;;;7.92;100.00
42111;BME280;27766;52.174;5.456;2023-03-25T05:47:42;99917.44;;;7.88;100.00
42111;BME280;27766;52.174;5.456;2023-03-25T05:50:10;99919.94;;;7.85;100.00
42111;BME280;27766;52.174;5.456;2023-03-25T05:52:37;99910.63;;;7.95;100.00
42111;BME280;27766;52.174;5.456;2023-03-25T05:55:15;99916.75;;;8.03;100.00
42111;BME280;27766;52.174;5.456;2023-03-25T05:57:44;99921.78;;;7.93;100.00
42111;BME280;27766;52.174;5.456;2023-03-25T06:00:13;99931.31;;;8.01;100.00
42111;BME280;27766;52.174;5.456;2023-03-25T06:02:41;99933.09;;;8.03;100.00
42111;BME280;27766;52.174;5.456;2023-03-25T06:05:12;99929.56;;;7.98;100.00
42111;BME280;27766;52.174;5.456;2023-03-25T06:07:45;99929.56;;;7.98;100.00
42111;BME280;27766;52.174;5.456;2023-03-25T06:10:13;99940.91;;;8.08;100.00
42111;BME280;27766;52.174;5.456;2023-03-25T06:12:45;99927.13;;;8.06;100.00
42111;BME280;27766;52.174;5.456;2023-03-25T06:15:15;99937.38;;;8.03;100.00
42111;BME280;27766;52.174;5.456;2023-03-25T06:17:44;99946.78;;;7.99;100.00
42111;BME280;27766;52.174;5.456;2023-03-25T06:20:14;99933.09;;;8.03;100.00
42111;BME280;27766;52.174;5.456;2023-03-25T06:22:44;99945.91;;;7.99;100.00
42111;BME280;27766;52.174;5.456;2023-03-25T06:25:14;99940.97;;;8.14;100.00
42111;BME280;27766;52.174;5.456;2023-03-25T06:27:44;99947.03;;;8.18;100.00
42111;BME280;27766;52.174;5.456;2023-03-25T06:30:13;99940.16;;;8.20;100.00
42111;BME280;27766;52.174;5.456;2023-03-25T06:32:41;99941.13;;;8.27;100.00
42111;BME280;27766;52.174;5.456;2023-03-25T06:35:09;99947.31;;;8.38;100.00
42111;BME280;27766;52.174;5.456;2023-03-25T06:37:37;99955.03;;;8.38;100.00
42111;BME280;27766;52.174;5.456;2023-03-25T06:40:05;99956.06;;;8.48;100.00
42111;BME280;27766;52.174;5.456;2023-03-25T06:42:32;99952.34;;;8.30;100.00
42111;BME280;27766;52.174;5.456;2023-03-25T06:45:00;99966.78;;;8.17;100.00
42111;BME280;27766;52.174;5.456;2023-03-25T06:47:30;99954.63;;;8.07;100.00
42111;BME280;27766;52.174;5.456;2023-03-25T06:49:57;99950.09;;;7.90;100.00
42111;BME280;27766;52.174;5.456;2023-03-25T06:52:24;99957.81;;;7.90;100.00
42111;BME280;27766;52.174;5.456;2023-03-25T06:54:52;99956.78;;;7.79;100.00
42111;BME280;27766;52.174;5.456;2023-03-25T06:57:19;99970.47;;;7.76;100.00
42111;BME280;27766;52.174;5.456;2023-03-25T06:59:46;99958.41;;;7.72;100.00
42111;BME280;27766;52.174;5.456;2023-03-25T07:02:14;99966.13;;;7.72;100.00
42111;BME280;27766;52.174;5.456;2023-03-25T07:04:41;99969.63;;;7.76;100.00
42111;BME280;27766;52.174;5.456;2023-03-25T07:07:08;99958.53;;;7.80;100.00
42111;BME280;27766;52.174;5.456;2023-03-25T07:09:36;99962.81;;;7.80;100.00
42111;BME280;27766;52.174;5.456;2023-03-25T07:12:03;99964.63;;;7.85;100.00
42111;BME280;27766;52.174;5.456;2023-03-25T07:14:34;99970.72;;;7.90;100.00
42111;BME280;27766;52.174;5.456;2023-03-25T07:17:05;99973.38;;;7.97;100.00
42111;BME280;27766;52.174;5.456;2023-03-25T07:19:32;99963.00;;;7.93;100.00
42111;BME280;27766;52.174;5.456;2023-03-25T07:22:02;99975.13;;;8.01;100.00
42111;BME280;27766;52.174;5.456;2023-03-25T07:24:30;99970.72;;;7.90;100.00
42111;BME280;27766;52.174;5.456;2023-03-25T07:26:57;99966.53;;;7.99;100.00
42111;BME280;27766;52.174;5.456;2023-03-25T07:29:24;99975.09;;;7.98;100.00
42111;BME280;27766;52.174;5.456;2023-03-25T07:31:52;99975.88;;;7.93;100.00
42111;BME280;27766;52.174;5.456;2023-03-25T07:34:19;99976.84;;;7.99;100.00
42111;BME280;27766;52.174;5.456;2023-03-25T07:36:47;99981.16;;;8.00;100.00
42111;BME280;27766;52.174;5.456;2023-03-25T07:39:14;99983.91;;;8.12;100.00
42111;BME280;27766;52.174;5.456;2023-03-25T07:41:41;99981.41;;;8.18;100.00
42111;BME280;27766;52.174;5.456;2023-03-25T07:44:09;99975.41;;;8.19;100.00
42111;BME280;27766;52.174;5.456;2023-03-25T07:46:36;99988.38;;;8.24;100.00
42111;BME280;27766;52.174;5.456;2023-03-25T07:49:03;99971.09;;;8.20;100.00
42111;BME280;27766;52.174;5.456;2023-03-25T07:51:30;99988.34;;;8.22;100.00
42111;BME280;27766;52.174;5.456;2023-03-25T07:54:00;99990.06;;;8.22;100.00
42111;BME280;27766;52.174;5.456;2023-03-25T07:56:31;99981.59;;;8.31;100.00
42111;BME280;27766;52.174;5.456;2023-03-25T07:59:01;99999.56;;;8.26;100.00
42111;BME280;27766;52.174;5.456;2023-03-25T08:01:28;99990.03;;;8.20;100.00
42111;BME280;27766;52.174;5.456;2023-03-25T08:03:56;99988.31;;;8.21;100.00
42111;BME280;27766;52.174;5.456;2023-03-25T08:06:23;99989.19;;;8.21;100.00
42111;BME280;27766;52.174;5.456;2023-03-25T08:08:50;99991.03;;;8.32;100.00
42111;BME280;27766;52.174;5.456;2023-03-25T08:11:18;99985.78;;;8.24;100.00
42111;BME280;27766;52.174;5.456;2023-03-25T08:13:45;99989.34;;;8.31;100.00
42111;BME280;27766;52.174;5.456;2023-03-25T08:16:13;100003.09;;;8.33;100.00
42111;BME280;27766;52.174;5.456;2023-03-25T08:18:42;99998.84;;;8.36;100.00
42111;BME280;27766;52.174;5.456;2023-03-25T08:21:12;100007.47;;;8.40;100.00
42111;BME280;27766;52.174;5.456;2023-03-25T08:23:39;100008.34;;;8.39;100.00
42111;BME280;27766;52.174;5.456;2023-03-25T08:26:06;100017.13;;;8.50;100.00
42111;BME280;27766;52.174;5.456;2023-03-25T08:28:34;100010.94;;;8.42;100.00
42111;BME280;27766;52.174;5.456;2023-03-25T08:31:05;100014.56;;;8.52;100.00
42111;BME280;27766;52.174;5.456;2023-03-25T08:33:34;100006.84;;;8.53;100.00
42111;BME280;27766;52.174;5.456;2023-03-25T08:36:06;100005.00;;;8.46;100.00
42111;BME280;27766;52.174;5.456;2023-03-25T08:38:36;100005.84;;;8.45;100.00
42111;BME280;27766;52.174;5.456;2023-03-25T08:41:03;100000.69;;;8.45;100.00
42111;BME280;27766;52.174;5.456;2023-03-25T08:43:31;100014.53;;;8.49;100.00
42111;BME280;27766;52.174;5.456;2023-03-25T08:45:58;99997.28;;;8.46;100.00
42111;BME280;27766;52.174;5.456;2023-03-25T08:48:26;100009.44;;;8.53;100.00
42111;BME280;27766;52.174;5.456;2023-03-25T08:50:53;100000.75;;;8.48;100.00
42111;BME280;27766;52.174;5.456;2023-03-25T08:53:20;100018.00;;;8.52;100.00
42111;BME280;27766;52.174;5.456;2023-03-25T08:55:52;100014.75;;;8.66;100.00
42111;BME280;27766;52.174;5.456;2023-03-25T08:58:20;100014.81;;;8.72;100.00
42111;BME280;27766;52.174;5.456;2023-03-25T09:00:52;100025.44;;;8.95;100.00
42111;BME280;27766;52.174;5.456;2023-03-25T09:03:22;100014.25;;;8.96;100.00
42111;BME280;27766;52.174;5.456;2023-03-25T09:05:50;100014.44;;;9.12;100.00
42111;BME280;27766;52.174;5.456;2023-03-25T09:08:17;100029.91;;;9.12;100.00
42111;BME280;27766;52.174;5.456;2023-03-25T09:10:45;100011.81;;;9.09;100.00
42111;BME280;27766;52.174;5.456;2023-03-25T09:13:12;100015.28;;;9.14;100.00
42111;BME280;27766;52.174;5.456;2023-03-25T09:15:39;100015.41;;;9.25;100.00
42111;BME280;27766;52.174;5.456;2023-03-25T09:18:06;100013.69;;;9.27;100.00
42111;BME280;27766;52.174;5.456;2023-03-25T09:20:34;100026.56;;;9.24;100.00
42111;BME280;27766;52.174;5.456;2023-03-25T09:23:02;100034.31;;;9.21;100.00
42111;BME280;27766;52.174;5.456;2023-03-25T09:25:30;100016.34;;;9.30;100.00
42111;BME280;27766;52.174;5.456;2023-03-25T09:27:57;100016.34;;;9.33;100.00
42111;BME280;27766;52.174;5.456;2023-03-25T09:30:25;100017.28;;;9.43;100.00
42111;BME280;27766;52.174;5.456;2023-03-25T09:32:52;100031.97;;;9.45;100.00
42111;BME280;27766;52.174;5.456;2023-03-25T09:35:19;100039.81;;;9.56;100.00
42111;BME280;27766;52.174;5.456;2023-03-25T09:37:47;100032.91;;;9.54;100.00
42111;BME280;27766;52.174;5.456;2023-03-25T09:40:20;100039.06;;;9.68;100.00
42111;BME280;27766;52.174;5.456;2023-03-25T09:45:41;100045.06;;;9.65;100.00
42111;BME280;27766;52.174;5.456;2023-03-25T09:48:19;100041.56;;;9.60;100.00
42111;BME280;27766;52.174;5.456;2023-03-25T09:50:47;100050.13;;;9.52;100.00
42111;BME280;27766;52.174;5.456;2023-03-25T09:53:38;100042.47;;;9.64;100.00
42111;BME280;27766;52.174;5.456;2023-03-25T09:56:22;100032.22;;;9.72;100.00
42111;BME280;27766;52.174;5.456;2023-03-25T09:58:57;100039.13;;;9.77;100.00
42111;BME280;27766;52.174;5.456;2023-03-25T10:07:41;100049.47;;;9.74;100.00
42111;BME280;27766;52.174;5.456;2023-03-25T10:13:18;100066.78;;;9.85;100.00
42111;BME280;27766;52.174;5.456;2023-03-25T10:15:51;100045.44;;;10.12;100.00
42111;BME280;27766;52.174;5.456;2023-03-25T10:18:27;100048.13;;;10.23;100.00
42111;BME280;27766;52.174;5.456;2023-03-25T10:23:51;100070.34;;;10.01;100.00
42111;BME280;27766;52.174;5.456;2023-03-25T10:26:28;100044.84;;;9.44;100.00
42111;BME280;27766;52.174;5.456;2023-03-25T10:29:11;100060.50;;;9.56;100.00
42111;BME280;27766;52.174;5.456;2023-03-25T10:31:48;100058.81;;;9.60;100.00
42111;BME280;27766;52.174;5.456;2023-03-25T10:34:18;100056.31;;;9.74;100.00
42111;BME280;27766;52.174;5.456;2023-03-25T10:36:49;100058.91;;;9.71;100.00
42111;BME280;27766;52.174;5.456;2023-03-25T10:39:21;100059.94;;;9.90;100.00
42111;BME280;27766;52.174;5.456;2023-03-25T10:42:03;100070.34;;;9.99;100.00
42111;BME280;27766;52.174;5.456;2023-03-25T10:44:37;100072.38;;;10.37;100.00
42111;BME280;27766;52.174;5.456;2023-03-25T10:47:11;100054.28;;;10.37;100.00
42111;BME280;27766;52.174;5.456;2023-03-25T10:49:42;100074.06;;;10.35;100.00
42111;BME280;27766;52.174;5.456;2023-03-25T10:52:10;100070.59;;;10.33;100.00
42111;BME280;27766;52.174;5.456;2023-03-25T10:54:44;100066.25;;;10.32;100.00
42111;BME280;27766;52.174;5.456;2023-03-25T10:57:22;100073.13;;;10.27;100.00
42111;BME280;27766;52.174;5.456;2023-03-25T11:00:08;100074.03;;;10.32;100.00
42111;BME280;27766;52.174;5.456;2023-03-25T11:02:46;100075.91;;;10.45;100.00
42111;BME280;27766;52.174;5.456;2023-03-25T11:05:18;100074.97;;;10.40;100.00
42111;BME280;27766;52.174;5.456;2023-03-25T11:07:50;100082.84;;;10.53;100.00
42111;BME280;27766;52.174;5.456;2023-03-25T11:10:28;100089.72;;;10.54;100.00
42111;BME280;27766;52.174;5.456;2023-03-25T11:12:56;100087.16;;;10.58;100.00
42111;BME280;27766;52.174;5.456;2023-03-25T11:15:36;100091.59;;;10.78;100.00
42111;BME280;27766;52.174;5.456;2023-03-25T11:18:11;100091.63;;;10.86;100.00
42111;BME280;27766;52.174;5.456;2023-03-25T11:20:53;100094.91;;;10.58;100.00
42111;BME280;27766;52.174;5.456;2023-03-25T11:23:32;100093.19;;;10.56;100.00
42111;BME280;27766;52.174;5.456;2023-03-25T11:26:17;100103.44;;;10.40;100.00
42111;BME280;27766;52.174;5.456;2023-03-25T11:28:53;100094.00;;;10.49;100.00
42111;BME280;27766;52.174;5.456;2023-03-25T11:31:26;100103.63;;;10.71;100.00
42111;BME280;27766;52.174;5.456;2023-03-25T11:39:39;100103.00;;;11.25;100.00
42111;BME280;27766;52.174;5.456;2023-03-25T11:42:38;100111.63;;;11.16;100.00
42111;BME280;27766;52.174;5.456;2023-03-25T11:45:12;100080.63;;;11.41;100.00
42111;BME280;27766;52.174;5.456;2023-03-25T11:47:44;100078.03;;;11.50;100.00
42111;BME280;27766;52.174;5.456;2023-03-25T11:50:23;100099.66;;;11.59;100.00
42111;BME280;27766;52.174;5.456;2023-03-25T11:52:55;100107.44;;;11.63;100.00
42111;BME280;27766;52.174;5.456;2023-03-25T11:55:27;100104.00;;;11.74;100.00
42111;BME280;27766;52.174;5.456;2023-03-25T11:57:55;100097.91;;;11.48;100.00
42111;BME280;27766;52.174;5.456;2023-03-25T12:03:19;100111.72;;;11.55;100.00
42111;BME280;27766;52.174;5.456;2023-03-25T12:08:29;100100.56;;;11.96;100.00
42111;BME280;27766;52.174;5.456;2023-03-25T12:11:04;100108.31;;;11.88;100.00
42111;BME280;27766;52.174;5.456;2023-03-25T12:13:55;100095.38;;;11.79;100.00
42111;BME280;27766;52.174;5.456;2023-03-25T12:38:55;100103.16;;;11.95;100.00
42111;BME280;27766;52.174;5.456;2023-03-25T12:41:34;100099.72;;;11.91;100.00
42111;BME280;27766;52.174;5.456;2023-03-25T12:44:12;100107.44;;;11.74;100.00
42111;BME280;27766;52.174;5.456;2023-03-25T12:55:41;100108.22;;;11.42;100.00
42111;BME280;27766;52.174;5.456;2023-03-25T12:58:34;100110.00;;;11.46;100.00
42111;BME280;27766;52.174;5.456;2023-03-25T13:04:21;100109.16;;;11.61;100.00
42111;BME280;27766;52.174;5.456;2023-03-25T13:07:04;100102.28;;;11.76;100.00
42111;BME280;27766;52.174;5.456;2023-03-25T13:09:59;100109.22;;;11.89;100.00
42111;BME280;27766;52.174;5.456;2023-03-25T13:12:36;100098.88;;;12.05;100.00
42111;BME280;27766;52.174;5.456;2023-03-25T13:15:21;100103.19;;;12.23;100.00
42111;BME280;27766;52.174;5.456;2023-03-25T13:18:18;100139.50;;;12.09;100.00
42111;BME280;27766;52.174;5.456;2023-03-25T13:23:39;100108.38;;;12.41;100.00
42111;BME280;27766;52.174;5.456;2023-03-25T13:26:15;100112.72;;;12.07;100.00
42111;BME280;27766;52.174;5.456;2023-03-25T13:28:50;100104.91;;;12.16;100.00
42111;BME280;27766;52.174;5.456;2023-03-25T13:31:27;100115.31;;;12.19;100.00
42111;BME280;27766;52.174;5.456;2023-03-25T13:43:10;100125.69;;;12.14;100.00
42111;BME280;27766;52.174;5.456;2023-03-25T13:51:08;100124.78;;;11.89;100.00
42111;BME280;27766;52.174;5.456;2023-03-25T14:02:30;100121.25;;;11.53;100.00
42111;BME280;27766;52.174;5.456;2023-03-25T14:10:41;100174.31;;;10.64;100.00
42111;BME280;27766;52.174;5.456;2023-03-25T14:13:36;100173.06;;;10.19;100.00
42111;BME280;27766;52.174;5.456;2023-03-25T14:16:08;100191.81;;;9.94;100.00
42111;BME280;27766;52.174;5.456;2023-03-25T14:18:58;100190.06;;;9.92;100.00
42111;BME280;27766;52.174;5.456;2023-03-25T14:24:32;100202.34;;;9.36;100.00
42111;BME280;27766;52.174;5.456;2023-03-25T14:27:04;100188.31;;;9.15;100.00
42111;BME280;27766;52.174;5.456;2023-03-25T14:29:39;100193.44;;;9.85;100.00
42111;BME280;27766;52.174;5.456;2023-03-25T14:34:44;100178.13;;;11.25;100.00
42111;BME280;27766;52.174;5.456;2023-03-25T14:39:47;100168.88;;;12.03;100.00
42111;BME280;27766;52.174;5.456;2023-03-25T14:42:29;100185.38;;;12.44;100.00
42111;BME280;27766;52.174;5.456;2023-03-25T14:48:04;100182.75;;;12.31;100.00
42111;BME280;27766;52.174;5.456;2023-03-25T14:51:07;100188.72;;;11.87;100.00
42111;BME280;27766;52.174;5.456;2023-03-25T14:53:36;100173.09;;;11.53;100.00
42111;BME280;27766;52.174;5.456;2023-03-25T14:56:14;100186.88;;;11.47;100.00
42111;BME280;27766;52.174;5.456;2023-03-25T14:58:43;100183.41;;;11.47;100.00
42111;BME280;27766;52.174;5.456;2023-03-25T15:01:13;100188.53;;;11.34;100.00
42111;BME280;27766;52.174;5.456;2023-03-25T15:03:43;100184.19;;;11.30;100.00
42111;BME280;27766;52.174;5.456;2023-03-25T15:06:32;100192.78;;;11.17;100.00
42111;BME280;27766;52.174;5.456;2023-03-25T15:09:01;100209.03;;;10.91;100.00
42111;BME280;27766;52.174;5.456;2023-03-25T15:11:37;100199.34;;;10.67;100.00
42111;BME280;27766;52.174;5.456;2023-03-25T15:14:19;100173.22;;;10.36;100.00
42111;BME280;27766;52.174;5.456;2023-03-25T15:19:18;100183.38;;;10.14;100.00
42111;BME280;27766;52.174;5.456;2023-03-25T15:24:31;100281.59;;;7.90;100.00
42111;BME280;27766;52.174;5.456;2023-03-25T15:29:57;100270.19;;;7.36;100.00
42111;BME280;27766;52.174;5.456;2023-03-25T15:32:39;100270.81;;;7.25;100.00
42111;BME280;27766;52.174;5.456;2023-03-25T15:52:34;100289.72;;;7.26;100.00
42111;BME280;27766;52.174;5.456;2023-03-25T15:55:10;100292.75;;;7.08;100.00
42111;BME280;27766;52.174;5.456;2023-03-25T16:00:37;100300.66;;;7.17;100.00
42111;BME280;27766;52.174;5.456;2023-03-25T16:03:13;100276.03;;;7.28;100.00
42111;BME280;27766;52.174;5.456;2023-03-25T16:05:48;100291.88;;;7.47;100.00
42111;BME280;27766;52.174;5.456;2023-03-25T16:08:33;100279.31;;;7.61;100.00
42111;BME280;27766;52.174;5.456;2023-03-25T16:13:45;100296.00;;;7.80;100.00
42111;BME280;27766;52.174;5.456;2023-03-25T16:16:14;100302.91;;;7.81;100.00
42111;BME280;27766;52.174;5.456;2023-03-25T16:18:44;100299.59;;;7.87;100.00